Time;durP1;ratioP1;P1;durP2;ratioP2;P2;SDS_P1;SDS_P2;PMS_P1;PMS_P2;Temp;Humidity;BMP_temperature;BMP_pressure;BME280_temperature;BME280_humidity;BME280_pressure;Samples;Min_cycle;Max_cycle;Signal;HPM_P1;HPM_P2
2022/09/11 00:01:34;;;;;;;;;;;15.80;99.90;;;;;;5059564;28;19909;-57
2022/09/11 00:04:00;;;;;;;;;;;15.70;99.90;;;;;;5061289;28;19908;-58
2022/09/11 00:06:26;;;;;;;;;;;15.70;99.90;;;;;;5061360;28;19912;-59
2022/09/11 00:08:59;;;;;;;;;;;15.60;99.90;;;;;;5061166;28;19928;-58
2022/09/11 00:11:26;;;;;;;;;;;15.60;99.90;;;;;;5077523;28;20003;-58
2022/09/11 00:13:52;;;;;;;;;;;15.60;99.90;;;;;;5061453;28;20291;-58
2022/09/11 00:16:32;;;;;;;;;;;15.70;99.90;;;;;;5060403;28;20233;-58
2022/09/11 00:18:59;;;;;;;;;;;15.80;99.90;;;;;;5061067;28;19909;-58
2022/09/11 00:21:25;;;;;;;;;;;15.80;99.90;;;;;;5061112;28;19912;-59
2022/09/11 00:23:52;;;;;;;;;;;15.80;99.90;;;;;;5061008;28;20288;-58
2022/09/11 00:26:18;;;;;;;;;;;15.70;99.90;;;;;;5060989;28;19912;-59
2022/09/11 00:28:44;;;;;;;;;;;15.80;99.90;;;;;;5060695;28;20033;-58
2022/09/11 00:31:11;;;;;;;;;;;15.80;99.90;;;;;;5060845;28;19923;-58
2022/09/11 00:33:38;;;;;;;;;;;15.90;99.90;;;;;;5059848;28;19919;-58
2022/09/11 00:36:05;;;;;;;;;;;15.80;99.90;;;;;;5060070;28;19916;-59
2022/09/11 00:38:32;;;;;;;;;;;15.80;99.90;;;;;;5060875;28;19909;-57
2022/09/11 00:40:58;;;;;;;;;;;15.70;99.90;;;;;;5076487;28;19909;-57
2022/09/11 00:43:25;;;;;;;;;;;15.70;99.90;;;;;;5060038;28;20272;-58
2022/09/11 00:45:56;;;;;;;;;;;15.80;99.90;;;;;;5060527;28;20242;-58
2022/09/11 00:48:23;;;;;;;;;;;15.80;99.90;;;;;;5060273;28;19912;-58
2022/09/11 00:50:50;;;;;;;;;;;15.80;99.90;;;;;;5060327;28;19909;-58
2022/09/11 00:53:18;;;;;;;;;;;15.80;99.90;;;;;;5060672;28;20200;-57
2022/09/11 00:55:47;;;;;;;;;;;15.80;99.90;;;;;;5060828;28;20185;-57
2022/09/11 00:58:17;;;;;;;;;;;15.70;99.90;;;;;;5060123;28;20011;-57
2022/09/11 01:00:43;;;;;;;;;;;15.80;99.90;;;;;;5060179;28;19956;-58
2022/09/11 01:03:10;;;;;;;;;;;15.70;99.90;;;;;;5060371;28;20269;-58
2022/09/11 01:05:38;;;;;;;;;;;15.70;99.90;;;;;;5060025;28;19955;-58
2022/09/11 01:08:05;;;;;;;;;;;15.70;99.90;;;;;;5059230;28;19952;-57
2022/09/11 01:10:51;;;;;;;;;;;15.80;99.90;;;;;;5059965;28;19909;-59
2022/09/11 01:13:36;;;;;;;;;;;15.70;99.90;;;;;;5052459;28;20196;-58
2022/09/11 01:16:02;;;;;;;;;;;15.70;99.90;;;;;;5059844;28;19908;-58
2022/09/11 01:18:31;;;;;;;;;;;15.70;99.90;;;;;;5059767;28;19909;-58
2022/09/11 01:21:24;;;;;;;;;;;15.70;99.90;;;;;;5059829;28;19913;-58
2022/09/11 01:23:53;;;;;;;;;;;15.80;99.90;;;;;;5059832;28;19938;-58
2022/09/11 01:26:23;;;;;;;;;;;15.60;99.90;;;;;;5058930;28;19951;-57
2022/09/11 01:28:51;;;;;;;;;;;15.40;99.90;;;;;;5059476;28;20318;-58
2022/09/11 01:31:20;;;;;;;;;;;15.50;99.90;;;;;;5075399;28;20315;-58
2022/09/11 01:33:56;;;;;;;;;;;15.60;99.90;;;;;;5059663;28;19944;-58
2022/09/11 01:36:27;;;;;;;;;;;15.60;99.90;;;;;;5075508;28;20248;-57
2022/09/11 01:38:55;;;;;;;;;;;15.60;99.90;;;;;;5059781;28;20183;-57
2022/09/11 01:41:30;;;;;;;;;;;15.60;99.90;;;;;;5058744;28;19909;-57
2022/09/11 01:44:02;;;;;;;;;;;15.70;99.90;;;;;;5059497;28;19912;-57
2022/09/11 01:46:30;;;;;;;;;;;15.50;99.90;;;;;;5075570;28;20003;-58
2022/09/11 01:49:00;;;;;;;;;;;15.60;99.90;;;;;;5058693;28;19923;-57
2022/09/11 01:51:28;;;;;;;;;;;15.50;99.90;;;;;;5058370;28;20360;-57
2022/09/11 01:53:55;;;;;;;;;;;15.50;99.90;;;;;;5059105;28;19966;-57
2022/09/11 01:56:22;;;;;;;;;;;15.50;99.90;;;;;;5059089;28;19955;-58
2022/09/11 01:58:54;;;;;;;;;;;15.50;99.90;;;;;;5058168;28;19917;-58
2022/09/11 02:01:23;;;;;;;;;;;15.40;99.90;;;;;;5059141;28;19917;-58
2022/09/11 02:03:54;;;;;;;;;;;15.40;99.90;;;;;;5058829;28;20000;-57
2022/09/11 02:06:23;;;;;;;;;;;15.40;99.90;;;;;;5058214;28;19912;-58
2022/09/11 02:09:01;;;;;;;;;;;15.40;99.90;;;;;;5074570;28;20188;-57
2022/09/11 02:11:30;;;;;;;;;;;15.40;99.90;;;;;;5075037;28;19920;-57
2022/09/11 02:14:00;;;;;;;;;;;15.40;99.90;;;;;;5074648;28;19923;-57
2022/09/11 02:16:47;;;;;;;;;;;15.40;99.90;;;;;;5058741;28;19909;-58
2022/09/11 02:19:26;;;;;;;;;;;15.30;99.90;;;;;;5058690;28;19913;-58
2022/09/11 02:21:52;;;;;;;;;;;15.40;99.90;;;;;;5074536;28;19999;-58
2022/09/11 02:24:18;;;;;;;;;;;15.20;99.90;;;;;;5073412;28;20323;-57
2022/09/11 02:26:51;;;;;;;;;;;15.10;99.90;;;;;;5057759;28;19971;-58
2022/09/11 02:29:17;;;;;;;;;;;15.10;99.90;;;;;;5057587;28;20291;-58
2022/09/11 02:31:43;;;;;;;;;;;15.10;99.90;;;;;;5057697;28;20007;-58
2022/09/11 02:34:10;;;;;;;;;;;15.20;99.90;;;;;;5058391;28;20296;-57
2022/09/11 02:36:37;;;;;;;;;;;15.20;99.90;;;;;;5074247;28;19970;-57
2022/09/11 02:39:02;;;;;;;;;;;15.20;99.90;;;;;;5057527;28;19909;-58
2022/09/11 02:41:54;;;;;;;;;;;15.10;99.90;;;;;;5074067;28;19909;-58
2022/09/11 02:44:47;;;;;;;;;;;15.00;99.90;;;;;;5042359;28;19920;-57
2022/09/11 02:47:32;;;;;;;;;;;15.00;99.90;;;;;;5055800;28;19966;-57
2022/09/11 02:50:06;;;;;;;;;;;14.90;99.90;;;;;;5074045;28;19913;-57
2022/09/11 02:52:44;;;;;;;;;;;14.90;99.90;;;;;;5057372;28;19912;-58
2022/09/11 02:55:13;;;;;;;;;;;14.90;99.90;;;;;;5057153;28;20227;-57
2022/09/11 02:57:41;;;;;;;;;;;14.80;99.90;;;;;;5057841;28;19917;-58
2022/09/11 03:00:08;;;;;;;;;;;14.70;99.90;;;;;;5058087;28;19921;-57
2022/09/11 03:02:36;;;;;;;;;;;14.80;99.90;;;;;;5057108;28;19973;-57
2022/09/11 03:05:03;;;;;;;;;;;14.90;99.90;;;;;;5073669;28;19912;-57
2022/09/11 03:07:29;;;;;;;;;;;14.90;99.90;;;;;;5057107;28;19908;-57
2022/09/11 03:09:56;;;;;;;;;;;14.90;99.90;;;;;;5056854;28;19923;-58
2022/09/11 03:12:23;;;;;;;;;;;14.80;99.90;;;;;;5073573;28;20046;-58
2022/09/11 03:14:50;;;;;;;;;;;14.80;99.90;;;;;;5056889;28;20003;-58
2022/09/11 03:17:16;;;;;;;;;;;14.70;99.90;;;;;;5057663;28;19928;-57
2022/09/11 03:19:41;;;;;;;;;;;14.70;99.90;;;;;;5040214;28;19922;-57
2022/09/11 03:22:07;;;;;;;;;;;14.80;99.90;;;;;;5057538;28;19920;-57
2022/09/11 03:24:33;;;;;;;;;;;14.80;99.90;;;;;;5057492;28;19912;-58
2022/09/11 03:26:59;;;;;;;;;;;14.60;99.90;;;;;;5040189;28;19912;-57
2022/09/11 03:29:26;;;;;;;;;;;14.40;99.90;;;;;;5073243;28;19920;-58
2022/09/11 03:31:52;;;;;;;;;;;14.40;99.90;;;;;;5057489;28;19991;-57
2022/09/11 03:34:18;;;;;;;;;;;14.60;99.90;;;;;;5073165;28;19951;-61
2022/09/11 03:36:46;;;;;;;;;;;14.60;99.90;;;;;;5057102;28;20260;-58
2022/09/11 03:39:12;;;;;;;;;;;14.70;99.90;;;;;;5056581;28;20211;-57
2022/09/11 03:41:38;;;;;;;;;;;14.80;99.90;;;;;;5057258;28;19913;-58
2022/09/11 03:44:04;;;;;;;;;;;14.90;99.90;;;;;;5057276;28;19923;-57
2022/09/11 03:46:30;;;;;;;;;;;14.90;99.90;;;;;;5057070;28;20000;-58
2022/09/11 03:48:56;;;;;;;;;;;14.80;99.90;;;;;;5072958;28;19912;-58
2022/09/11 03:51:22;;;;;;;;;;;14.80;99.90;;;;;;5057251;28;19913;-58
2022/09/11 03:53:47;;;;;;;;;;;14.80;99.90;;;;;;5056284;28;19927;-57
2022/09/11 03:56:14;;;;;;;;;;;14.80;99.90;;;;;;5056340;28;20207;-57
2022/09/11 03:58:44;;;;;;;;;;;14.70;99.90;;;;;;5073272;28;19917;-57
2022/09/11 04:01:12;;;;;;;;;;;14.70;99.90;;;;;;5056335;28;19912;-58
2022/09/11 04:03:39;;;;;;;;;;;14.60;99.90;;;;;;5072878;28;19920;-58
2022/09/11 04:06:07;;;;;;;;;;;14.60;99.90;;;;;;5056400;28;19923;-58
2022/09/11 04:08:34;;;;;;;;;;;14.60;99.90;;;;;;5056448;28;19913;-57
2022/09/11 04:11:03;;;;;;;;;;;14.60;99.90;;;;;;5072904;28;19913;-57
2022/09/11 04:13:33;;;;;;;;;;;14.70;99.90;;;;;;5056057;28;19915;-57
2022/09/11 04:16:02;;;;;;;;;;;14.60;99.90;;;;;;5056284;28;19909;-57
2022/09/11 04:18:29;;;;;;;;;;;14.60;99.90;;;;;;5056626;28;19908;-58
2022/09/11 04:20:55;;;;;;;;;;;14.60;99.90;;;;;;5057170;28;20003;-57
2022/09/11 04:23:20;;;;;;;;;;;14.60;99.90;;;;;;5056724;28;19987;-57
2022/09/11 04:25:46;;;;;;;;;;;14.60;99.90;;;;;;5055826;28;20219;-57
2022/09/11 04:28:12;;;;;;;;;;;14.40;99.90;;;;;;5055765;28;21814;-57
2022/09/11 04:30:38;;;;;;;;;;;14.20;99.90;;;;;;5056005;28;20196;-57
2022/09/11 04:33:05;;;;;;;;;;;14.10;99.90;;;;;;5055766;28;19913;-57
2022/09/11 04:35:31;;;;;;;;;;;14.10;99.90;;;;;;5055813;28;19920;-57
2022/09/11 04:37:58;;;;;;;;;;;14.20;99.90;;;;;;5055973;28;19947;-57
2022/09/11 04:40:24;;;;;;;;;;;14.10;99.90;;;;;;5056356;28;19978;-57
2022/09/11 04:42:51;;;;;;;;;;;14.00;99.90;;;;;;5039225;28;19912;-58
2022/09/11 04:45:18;;;;;;;;;;;13.90;99.90;;;;;;5072488;28;19924;-57
2022/09/11 04:47:43;;;;;;;;;;;13.70;99.90;;;;;;5057245;28;20292;-58
2022/09/11 04:50:11;;;;;;;;;;;13.70;99.90;;;;;;5043013;28;20011;-57
2022/09/11 04:52:38;;;;;;;;;;;13.70;99.90;;;;;;5059673;28;19913;-57
2022/09/11 04:55:06;;;;;;;;;;;13.80;99.90;;;;;;5076057;28;19963;-57
2022/09/11 04:57:32;;;;;;;;;;;13.90;99.90;;;;;;5059154;28;19960;-57
2022/09/11 04:59:59;;;;;;;;;;;14.00;99.90;;;;;;5075927;28;19940;-58
2022/09/11 05:02:24;;;;;;;;;;;14.00;99.90;;;;;;5075834;28;19913;-58
2022/09/11 05:04:53;;;;;;;;;;;13.80;99.90;;;;;;5075685;28;20055;-58
2022/09/11 05:07:19;;;;;;;;;;;13.60;99.90;;;;;;5060001;28;19919;-58
2022/09/11 05:09:47;;;;;;;;;;;13.50;99.90;;;;;;5058920;28;19989;-58
2022/09/11 05:12:14;;;;;;;;;;;13.50;99.90;;;;;;5058642;28;19969;-58
2022/09/11 05:14:40;;;;;;;;;;;13.50;99.90;;;;;;5042177;28;19923;-58
2022/09/11 05:17:06;;;;;;;;;;;13.50;99.90;;;;;;5059785;28;19916;-58
2022/09/11 05:19:36;;;;;;;;;;;13.50;99.90;;;;;;5058924;28;20284;-58
2022/09/11 05:22:03;;;;;;;;;;;13.60;99.90;;;;;;5059002;28;19936;-58
2022/09/11 05:24:29;;;;;;;;;;;13.70;99.90;;;;;;5058779;28;19916;-58
2022/09/11 05:26:57;;;;;;;;;;;13.80;99.90;;;;;;5075446;28;19912;-58
2022/09/11 05:29:27;;;;;;;;;;;14.00;99.90;;;;;;5075304;28;19993;-58
2022/09/11 05:31:59;;;;;;;;;;;13.90;99.90;;;;;;5058784;28;19913;-59
2022/09/11 05:34:27;;;;;;;;;;;13.90;99.90;;;;;;5058670;28;19923;-58
2022/09/11 05:36:54;;;;;;;;;;;13.80;99.90;;;;;;5041915;28;19951;-59
2022/09/11 05:39:20;;;;;;;;;;;13.60;99.90;;;;;;5058418;28;19923;-58
2022/09/11 05:41:48;;;;;;;;;;;13.60;99.90;;;;;;5075529;28;19912;-58
2022/09/11 05:44:16;;;;;;;;;;;13.70;99.90;;;;;;5058237;28;19995;-59
2022/09/11 05:46:42;;;;;;;;;;;13.90;99.90;;;;;;5058420;28;19963;-59
2022/09/11 05:49:07;;;;;;;;;;;14.00;99.90;;;;;;5058409;28;19955;-58
2022/09/11 05:51:36;;;;;;;;;;;13.90;99.90;;;;;;5058479;28;19905;-59
2022/09/11 05:54:02;;;;;;;;;;;13.70;99.90;;;;;;5058235;28;20239;-58
2022/09/11 05:56:28;;;;;;;;;;;13.70;99.90;;;;;;5058958;28;19916;-58
2022/09/11 05:58:58;;;;;;;;;;;13.80;99.90;;;;;;5057918;28;20280;-58
2022/09/11 06:01:30;;;;;;;;;;;13.80;99.90;;;;;;5058497;28;19913;-58
2022/09/11 06:04:09;;;;;;;;;;;13.80;99.90;;;;;;5058226;28;20023;-58
2022/09/11 06:06:35;;;;;;;;;;;13.90;99.90;;;;;;5058155;28;19909;-58
2022/09/11 06:09:02;;;;;;;;;;;14.00;99.90;;;;;;5058204;28;20284;-58
2022/09/11 06:11:28;;;;;;;;;;;14.00;99.90;;;;;;5058123;28;19916;-58
2022/09/11 06:13:54;;;;;;;;;;;13.90;99.90;;;;;;5075032;28;20071;-58
2022/09/11 06:16:22;;;;;;;;;;;13.80;99.90;;;;;;5057978;28;19985;-58
2022/09/11 06:18:48;;;;;;;;;;;13.80;99.90;;;;;;5074635;28;19912;-58
2022/09/11 06:21:19;;;;;;;;;;;13.80;99.90;;;;;;5057822;28;19913;-62
2022/09/11 06:23:56;;;;;;;;;;;13.80;99.90;;;;;;5058010;28;20046;-58
2022/09/11 06:26:24;;;;;;;;;;;13.80;99.90;;;;;;5057880;28;19912;-58
2022/09/11 06:28:50;;;;;;;;;;;13.80;99.90;;;;;;5058536;28;19920;-59
2022/09/11 06:31:21;;;;;;;;;;;13.80;99.90;;;;;;5058016;28;20317;-58
2022/09/11 06:33:49;;;;;;;;;;;13.90;99.90;;;;;;5057590;28;19912;-58
2022/09/11 06:36:22;;;;;;;;;;;14.10;99.90;;;;;;5057562;28;19984;-59
2022/09/11 06:38:53;;;;;;;;;;;14.20;99.90;;;;;;5057577;28;19913;-59
2022/09/11 06:41:21;;;;;;;;;;;14.40;99.90;;;;;;5057469;28;19962;-58
2022/09/11 06:43:48;;;;;;;;;;;14.50;99.90;;;;;;5057487;28;19923;-58
2022/09/11 06:46:14;;;;;;;;;;;14.40;99.90;;;;;;5057386;28;19923;-59
2022/09/11 06:48:41;;;;;;;;;;;14.30;99.90;;;;;;5057282;28;20170;-58
2022/09/11 06:51:10;;;;;;;;;;;14.40;99.90;;;;;;5058133;28;19919;-59
2022/09/11 06:53:36;;;;;;;;;;;14.60;99.90;;;;;;5058938;28;19939;-58
2022/09/11 06:56:06;;;;;;;;;;;14.80;99.90;;;;;;5073801;28;19908;-59
2022/09/11 06:58:33;;;;;;;;;;;14.90;99.90;;;;;;5057129;28;19923;-58
2022/09/11 07:01:01;;;;;;;;;;;14.80;99.90;;;;;;5057286;28;19971;-58
2022/09/11 07:03:29;;;;;;;;;;;14.60;99.90;;;;;;5073813;28;19912;-58
2022/09/11 07:05:55;;;;;;;;;;;14.50;99.90;;;;;;5073945;28;19974;-58
2022/09/11 07:08:20;;;;;;;;;;;14.50;99.90;;;;;;5057785;28;20015;-58
2022/09/11 07:10:46;;;;;;;;;;;14.70;99.90;;;;;;5057246;28;19923;-58
2022/09/11 07:13:12;;;;;;;;;;;14.80;99.90;;;;;;5057562;28;20055;-58
2022/09/11 07:15:38;;;;;;;;;;;14.80;99.90;;;;;;5057044;28;19913;-58
2022/09/11 07:18:05;;;;;;;;;;;15.20;99.90;;;;;;5057004;28;19948;-59
2022/09/11 07:20:31;;;;;;;;;;;15.40;99.90;;;;;;5057651;28;19952;-58
2022/09/11 07:22:57;;;;;;;;;;;15.70;99.90;;;;;;5039882;28;19951;-58
2022/09/11 07:25:25;;;;;;;;;;;15.80;99.90;;;;;;5056907;28;20017;-59
2022/09/11 07:27:51;;;;;;;;;;;16.00;99.90;;;;;;5073565;28;19908;-59
2022/09/11 07:30:18;;;;;;;;;;;16.00;99.90;;;;;;5056636;28;19974;-58
2022/09/11 07:32:48;;;;;;;;;;;16.10;99.90;;;;;;5056658;28;20288;-58
2022/09/11 07:35:20;;;;;;;;;;;16.20;99.90;;;;;;5057446;28;19928;-58
2022/09/11 07:37:48;;;;;;;;;;;16.20;99.90;;;;;;5056621;28;19974;-57
2022/09/11 07:40:14;;;;;;;;;;;16.30;99.90;;;;;;5056613;28;19916;-58
2022/09/11 07:42:41;;;;;;;;;;;16.40;99.90;;;;;;5056618;28;19971;-58
2022/09/11 07:45:07;;;;;;;;;;;16.60;99.90;;;;;;5057500;28;19917;-58
2022/09/11 07:47:33;;;;;;;;;;;16.60;99.90;;;;;;5056537;28;19909;-58
2022/09/11 07:49:59;;;;;;;;;;;16.60;99.90;;;;;;5056422;28;19978;-58
2022/09/11 07:52:25;;;;;;;;;;;16.90;99.90;;;;;;5056470;28;19913;-58
2022/09/11 07:55:00;;;;;;;;;;;17.30;99.90;;;;;;5056539;28;19913;-59
2022/09/11 07:57:28;;;;;;;;;;;17.70;99.90;;;;;;5073157;28;19916;-59
2022/09/11 07:59:55;;;;;;;;;;;18.00;99.90;;;;;;5056778;28;20007;-58
2022/09/11 08:02:22;;;;;;;;;;;18.20;99.90;;;;;;5056253;28;20312;-58
2022/09/11 08:04:48;;;;;;;;;;;18.50;99.90;;;;;;5056995;28;20320;-58
2022/09/11 08:07:13;;;;;;;;;;;18.70;99.90;;;;;;5056417;28;19912;-58
2022/09/11 08:09:39;;;;;;;;;;;19.00;99.90;;;;;;5057090;28;19920;-58
2022/09/11 08:12:06;;;;;;;;;;;18.80;99.90;;;;;;5072974;28;19912;-59
2022/09/11 08:14:35;;;;;;;;;;;18.90;99.90;;;;;;5056539;28;19917;-58
2022/09/11 08:17:15;;;;;;;;;;;18.60;99.90;;;;;;5056320;28;19956;-58
2022/09/11 08:19:41;;;;;;;;;;;18.80;99.90;;;;;;5056060;28;19913;-58
2022/09/11 08:22:07;;;;;;;;;;;18.90;99.90;;;;;;5056115;28;19986;-58
2022/09/11 08:24:38;;;;;;;;;;;19.20;99.90;;;;;;5060202;28;19913;-58
2022/09/11 08:27:05;;;;;;;;;;;19.00;99.90;;;;;;5060868;28;19913;-58
2022/09/11 08:29:33;;;;;;;;;;;19.10;99.90;;;;;;5059862;28;19920;-58
2022/09/11 08:32:00;;;;;;;;;;;19.20;99.90;;;;;;5060006;28;19909;-58
2022/09/11 08:34:27;;;;;;;;;;;19.20;99.90;;;;;;5061108;28;19917;-58
2022/09/11 08:36:52;;;;;;;;;;;19.40;99.90;;;;;;5059952;28;19908;-58
2022/09/11 08:39:18;;;;;;;;;;;19.60;99.90;;;;;;5060662;28;19942;-58
2022/09/11 08:41:55;;;;;;;;;;;19.40;99.90;;;;;;5059956;28;19913;-58
2022/09/11 08:44:24;;;;;;;;;;;19.60;99.90;;;;;;5059891;28;19908;-58
2022/09/11 08:46:55;;;;;;;;;;;19.60;99.90;;;;;;5059872;28;20238;-58
2022/09/11 08:49:33;;;;;;;;;;;19.40;99.90;;;;;;5059607;28;19919;-58
2022/09/11 08:52:01;;;;;;;;;;;19.10;99.90;;;;;;5059570;28;19909;-58
2022/09/11 08:54:30;;;;;;;;;;;19.10;99.90;;;;;;5043508;28;19909;-58
2022/09/11 08:57:21;;;;;;;;;;;19.30;99.90;;;;;;5060207;28;19909;-59
2022/09/11 08:59:49;;;;;;;;;;;19.70;99.90;;;;;;5040944;28;19939;-58
2022/09/11 09:02:34;;;;;;;;;;;19.30;99.90;;;;;;5076155;28;19909;-58
2022/09/11 09:05:23;;;;;;;;;;;19.30;99.90;;;;;;5060302;28;20347;-58
2022/09/11 09:07:52;;;;;;;;;;;19.20;99.90;;;;;;5076113;28;19912;-58
2022/09/11 09:10:30;;;;;;;;;;;19.60;99.90;;;;;;5060050;28;19909;-58
2022/09/11 09:12:56;;;;;;;;;;;20.00;99.90;;;;;;5075813;28;20188;-58
2022/09/11 09:15:22;;;;;;;;;;;20.20;99.90;;;;;;5075841;28;19909;-58
2022/09/11 09:18:00;;;;;;;;;;;19.70;99.90;;;;;;5076023;28;19909;-59
2022/09/11 09:20:30;;;;;;;;;;;19.70;99.90;;;;;;5059208;28;19908;-58
2022/09/11 09:23:01;;;;;;;;;;;20.20;99.90;;;;;;5059197;28;19915;-58
2022/09/11 09:25:29;;;;;;;;;;;20.40;99.90;;;;;;5075749;28;19991;-59
2022/09/11 09:28:07;;;;;;;;;;;19.80;99.90;;;;;;5042656;28;20169;-58
2022/09/11 09:30:39;;;;;;;;;;;19.80;99.90;;;;;;5059067;28;19912;-58
2022/09/11 09:33:37;;;;;;;;;;;19.80;99.90;;;;;;5058988;28;20307;-58
2022/09/11 09:36:15;;;;;;;;;;;20.40;99.90;;;;;;5037892;28;20345;-58
2022/09/11 09:38:42;;;;;;;;;;;20.80;99.90;;;;;;5075812;28;20185;-59
2022/09/11 09:41:27;;;;;;;;;;;21.20;99.90;;;;;;5060029;28;20255;-59
2022/09/11 09:44:07;;;;;;;;;;;21.50;99.90;;;;;;5075449;28;19909;-58
2022/09/11 09:46:47;;;;;;;;;;;21.80;99.90;;;;;;5059564;28;19995;-58
2022/09/11 09:49:17;;;;;;;;;;;22.10;99.90;;;;;;5059399;28;19912;-59
2022/09/11 09:51:42;;;;;;;;;;;22.40;99.90;;;;;;5059402;28;20003;-58
2022/09/11 09:54:12;;;;;;;;;;;21.70;99.90;;;;;;5075329;28;20303;-58
2022/09/11 09:56:38;;;;;;;;;;;21.70;99.90;;;;;;5059623;28;19908;-58
2022/09/11 09:59:22;;;;;;;;;;;21.80;99.90;;;;;;5059202;28;20312;-58
2022/09/11 10:01:49;;;;;;;;;;;21.40;99.90;;;;;;5059569;28;19974;-58
2022/09/11 10:04:22;;;;;;;;;;;21.70;99.90;;;;;;5058398;28;19916;-59
2022/09/11 10:06:50;;;;;;;;;;;22.30;99.90;;;;;;5059115;28;19922;-58
2022/09/11 10:09:27;;;;;;;;;;;22.90;99.90;;;;;;5058340;28;20338;-58
2022/09/11 10:11:54;;;;;;;;;;;23.40;99.90;;;;;;5059001;28;19909;-59
2022/09/11 10:14:21;;;;;;;;;;;22.90;99.90;;;;;;5058882;28;19912;-59
2022/09/11 10:16:48;;;;;;;;;;;22.70;99.90;;;;;;5058798;28;19958;-59
2022/09/11 10:19:33;;;;;;;;;;;22.70;99.90;;;;;;5058934;28;20021;-59
2022/09/11 10:22:22;;;;;;;;;;;21.80;99.90;;;;;;5058962;28;19959;-58
2022/09/11 10:25:03;;;;;;;;;;;21.00;99.90;;;;;;5058770;28;19912;-58
2022/09/11 10:27:30;;;;;;;;;;;21.10;99.90;;;;;;5058712;28;20245;-59
2022/09/11 10:29:57;;;;;;;;;;;21.00;99.90;;;;;;5058608;28;19951;-58
2022/09/11 10:32:24;;;;;;;;;;;21.30;99.90;;;;;;5058763;28;19962;-59
2022/09/11 10:34:50;;;;;;;;;;;21.80;99.90;;;;;;5058590;28;19912;-59
2022/09/11 10:37:29;;;;;;;;;;;22.30;99.90;;;;;;5058530;28;19962;-59
2022/09/11 10:40:04;;;;;;;;;;;22.80;99.90;;;;;;5057784;28;20007;-59
2022/09/11 10:42:30;;;;;;;;;;;23.40;99.90;;;;;;5057622;28;20015;-59
2022/09/11 10:45:09;;;;;;;;;;;24.30;99.90;;;;;;5057791;28;19909;-59
2022/09/11 10:47:36;;;;;;;;;;;23.90;99.90;;;;;;5058388;28;19956;-59
2022/09/11 10:50:16;;;;;;;;;;;25.10;99.90;;;;;;5058383;28;19917;-60
2022/09/11 10:52:47;;;;;;;;;;;25.50;99.90;;;;;;5058482;28;20208;-60
2022/09/11 10:55:14;;;;;;;;;;;24.90;99.90;;;;;;5058148;28;19909;-59
2022/09/11 10:57:45;;;;;;;;;;;25.10;99.90;;;;;;5058108;28;20312;-59
2022/09/11 11:00:14;;;;;;;;;;;25.40;99.90;;;;;;5058183;28;20195;-59
2022/09/11 11:02:57;;;;;;;;;;;26.70;99.90;;;;;;5058072;28;20007;-59
2022/09/11 11:05:38;;;;;;;;;;;28.40;99.90;;;;;;5058160;28;19909;-59
2022/09/11 11:08:03;;;;;;;;;;;29.00;99.90;;;;;;5057870;28;19909;-59
2022/09/11 11:10:35;;;;;;;;;;;28.90;99.90;;;;;;5057152;28;19916;-60
2022/09/11 11:13:03;;;;;;;;;;;28.60;99.90;;;;;;5057906;28;19908;-59
2022/09/11 11:15:34;;;;;;;;;;;27.50;99.90;;;;;;5073696;28;19954;-59
2022/09/11 11:18:16;;;;;;;;;;;26.70;99.90;;;;;;5056992;28;20284;-59
2022/09/11 11:21:01;;;;;;;;;;;26.70;99.90;;;;;;5057717;28;19909;-59
2022/09/11 11:23:33;;;;;;;;;;;26.10;99.90;;;;;;5058131;28;20346;-59
2022/09/11 11:26:13;;;;;;;;;;;26.20;99.90;;;;;;5058131;28;19979;-59
2022/09/11 11:28:38;;;;;;;;;;;26.90;99.90;;;;;;5057545;28;19913;-60
2022/09/11 11:31:19;;;;;;;;;;;27.20;99.90;;;;;;5057675;28;20003;-60
2022/09/11 11:33:51;;;;;;;;;;;27.70;99.90;;;;;;5057466;28;19934;-60
2022/09/11 11:36:23;;;;;;;;;;;26.40;99.90;;;;;;5057496;28;19912;-60
2022/09/11 11:38:59;;;;;;;;;;;26.50;99.90;;;;;;5057987;28;19908;-59
2022/09/11 11:41:37;;;;;;;;;;;26.00;99.90;;;;;;5057864;28;19923;-59
2022/09/11 11:44:05;;;;;;;;;;;26.60;99.90;;;;;;5057586;28;19945;-61
2022/09/11 11:46:37;;;;;;;;;;;27.30;99.90;;;;;;5057700;28;20302;-60
2022/09/11 11:49:16;;;;;;;;;;;27.40;99.90;;;;;;5057288;28;19987;-60
2022/09/11 11:51:50;;;;;;;;;;;28.40;99.90;;;;;;5057539;28;19958;-59
2022/09/11 11:54:21;;;;;;;;;;;27.40;99.90;;;;;;5057279;28;19908;-59
2022/09/11 11:56:50;;;;;;;;;;;28.10;99.90;;;;;;5057047;28;19913;-60
2022/09/11 11:59:30;;;;;;;;;;;27.80;99.90;;;;;;5057103;28;19917;-60
2022/09/11 12:02:09;;;;;;;;;;;27.90;99.90;;;;;;5057290;28;20051;-60
2022/09/11 12:04:43;;;;;;;;;;;28.70;99.90;;;;;;5057058;28;20325;-58
2022/09/11 12:07:36;;;;;;;;;;;29.30;99.90;;;;;;5056362;28;20005;-58
2022/09/11 12:10:03;;;;;;;;;;;29.40;99.90;;;;;;5055121;28;19913;-58
2022/09/11 12:12:42;;;;;;;;;;;30.20;99.90;;;;;;5057088;28;19909;-60
2022/09/11 12:15:15;;;;;;;;;;;30.40;99.90;;;;;;5057145;28;20188;-60
2022/09/11 12:17:42;;;;;;;;;;;30.40;99.90;;;;;;5057050;28;19915;-61
2022/09/11 12:20:08;;;;;;;;;;;29.90;99.90;;;;;;5057045;28;19919;-60
2022/09/11 12:22:37;;;;;;;;;;;30.00;99.90;;;;;;5056994;28;19908;-60
2022/09/11 12:25:23;;;;;;;;;;;28.60;99.90;;;;;;5057190;28;19908;-60
2022/09/11 12:27:51;;;;;;;;;;;28.40;99.90;;;;;;5049043;28;19909;-60
2022/09/11 12:30:17;;;;;;;;;;;29.60;99.90;;;;;;5056840;28;19913;-60
2022/09/11 12:32:42;;;;;;;;;;;29.30;99.90;;;;;;5057080;28;20365;-58
2022/09/11 12:35:20;;;;;;;;;;;29.70;99.90;;;;;;5056819;28;20237;-57
2022/09/11 12:37:58;;;;;;;;;;;29.70;99.90;;;;;;5056155;28;19947;-58
2022/09/11 12:40:32;;;;;;;;;;;30.00;99.90;;;;;;5056842;28;19909;-59
2022/09/11 12:43:15;;;;;;;;;;;30.40;99.90;;;;;;5056841;28;19913;-59
2022/09/11 12:45:42;;;;;;;;;;;29.90;99.90;;;;;;5039377;28;19999;-59
2022/09/11 12:48:21;;;;;;;;;;;30.00;99.90;;;;;;5056787;28;19944;-59
2022/09/11 12:50:48;;;;;;;;;;;30.00;99.90;;;;;;5072748;28;19959;-60
2022/09/11 12:53:16;;;;;;;;;;;30.40;99.90;;;;;;5056708;28;19923;-60
2022/09/11 12:55:50;;;;;;;;;;;30.70;99.90;;;;;;5055911;28;20272;-60
2022/09/11 12:58:17;;;;;;;;;;;30.80;99.90;;;;;;5056503;28;19948;-60
2022/09/11 13:00:45;;;;;;;;;;;30.70;99.90;;;;;;5056010;28;19999;-60
2022/09/11 13:03:18;;;;;;;;;;;30.40;99.90;;;;;;5056593;28;19908;-60
2022/09/11 13:05:50;;;;;;;;;;;30.50;99.90;;;;;;5056441;28;19909;-61
2022/09/11 13:08:21;;;;;;;;;;;30.10;99.90;;;;;;5056672;28;19915;-60
2022/09/11 13:10:46;;;;;;;;;;;29.40;99.90;;;;;;5060425;28;19912;-60
2022/09/11 13:13:39;;;;;;;;;;;29.80;99.90;;;;;;5076068;28;19924;-61
2022/09/11 13:16:17;;;;;;;;;;;29.90;99.90;;;;;;5076056;28;19909;-61
2022/09/11 13:18:43;;;;;;;;;;;30.00;99.90;;;;;;5059407;28;19909;-61
2022/09/11 13:21:09;;;;;;;;;;;30.30;99.90;;;;;;5059988;28;20276;-61
2022/09/11 13:23:35;;;;;;;;;;;30.50;99.90;;;;;;5059109;28;19985;-61
2022/09/11 13:26:03;;;;;;;;;;;30.50;99.90;;;;;;5059944;28;19938;-60
2022/09/11 13:28:30;;;;;;;;;;;30.40;99.90;;;;;;5059024;28;19912;-60
2022/09/11 13:30:59;;;;;;;;;;;30.80;99.90;;;;;;5075807;28;19986;-61
2022/09/11 13:33:27;;;;;;;;;;;31.00;99.90;;;;;;5059837;28;20247;-61
2022/09/11 13:35:56;;;;;;;;;;;30.80;99.90;;;;;;5060379;28;19999;-61
2022/09/11 13:38:24;;;;;;;;;;;31.00;99.90;;;;;;5059631;28;19920;-61
2022/09/11 13:40:53;;;;;;;;;;;31.90;99.90;;;;;;5059541;28;19909;-59
2022/09/11 13:43:24;;;;;;;;;;;32.20;97.70;;;;;;5059675;28;19912;-61
2022/09/11 13:46:08;;;;;;;;;;;32.60;97.20;;;;;;5059553;28;19952;-61
2022/09/11 13:48:35;;;;;;;;;;;33.10;95.40;;;;;;5059403;28;19935;-60
2022/09/11 13:51:03;;;;;;;;;;;31.00;97.80;;;;;;5058690;28;19920;-60
2022/09/11 13:53:30;;;;;;;;;;;30.00;99.90;;;;;;5042009;28;19912;-61
2022/09/11 13:55:56;;;;;;;;;;;31.10;99.50;;;;;;5058611;28;19952;-61
2022/09/11 13:58:23;;;;;;;;;;;33.20;97.10;;;;;;5058443;28;20308;-62
2022/09/11 14:00:49;;;;;;;;;;;34.90;93.60;;;;;;5059290;28;20023;-61
2022/09/11 14:03:19;;;;;;;;;;;36.90;90.70;;;;;;5075125;28;20227;-63
2022/09/11 14:05:49;;;;;;;;;;;37.70;79.50;;;;;;5059137;28;19919;-62
2022/09/11 14:08:33;;;;;;;;;;;37.70;78.20;;;;;;5058550;28;19913;-62
2022/09/11 14:11:06;;;;;;;;;;;37.00;77.10;;;;;;5059766;28;20015;-63
2022/09/11 14:13:34;;;;;;;;;;;37.40;75.50;;;;;;5058975;28;19924;-62
2022/09/11 14:16:12;;;;;;;;;;;36.50;75.00;;;;;;5075515;28;19919;-63
2022/09/11 14:18:52;;;;;;;;;;;37.10;73.10;;;;;;5058905;28;19912;-62
2022/09/11 14:21:21;;;;;;;;;;;38.00;70.10;;;;;;5058777;28;19912;-61
2022/09/11 14:23:54;;;;;;;;;;;37.70;70.10;;;;;;5058835;28;19920;-62
2022/09/11 14:26:37;;;;;;;;;;;38.90;65.90;;;;;;5059052;28;19962;-62
2022/09/11 14:29:06;;;;;;;;;;;39.60;64.40;;;;;;5057888;28;19913;-61
2022/09/11 14:31:35;;;;;;;;;;;38.50;64.30;;;;;;5058414;28;19909;-62
2022/09/11 14:34:07;;;;;;;;;;;38.90;63.50;;;;;;5058820;28;19962;-62